createdAt,value
2022-09-10T00:00:25.215Z,14.90
2022-09-10T00:02:53.951Z,15.00
2022-09-10T00:05:22.717Z,15.10
2022-09-10T00:07:53.767Z,15.10
2022-09-10T00:10:22.422Z,15.20
2022-09-10T00:12:51.381Z,15.10
2022-09-10T00:15:20.372Z,15.10
2022-09-10T00:17:51.111Z,15.10
2022-09-10T00:20:19.638Z,14.90
2022-09-10T00:22:48.579Z,14.70
2022-09-10T00:25:18.303Z,14.60
2022-09-10T00:27:46.695Z,14.60
2022-09-10T00:30:18.411Z,14.50
2022-09-10T00:32:52.720Z,14.50
2022-09-10T00:35:21.444Z,14.40
2022-09-10T00:37:50.158Z,14.60
2022-09-10T00:40:20.286Z,14.70
2022-09-10T00:42:48.912Z,14.60
2022-09-10T00:45:22.697Z,14.50
2022-09-10T00:47:54.750Z,14.40
2022-09-10T00:50:28.899Z,14.60
2022-09-10T00:53:02.089Z,14.60
2022-09-10T00:55:32.872Z,14.50
2022-09-10T00:58:04.038Z,14.60
2022-09-10T01:00:32.401Z,14.60
2022-09-10T01:05:24.175Z,14.80
2022-09-10T01:07:53.588Z,14.70
2022-09-10T01:10:28.134Z,14.60
2022-09-10T01:13:24.163Z,14.50
2022-09-10T01:16:08.923Z,14.40
2022-09-10T01:18:55.512Z,14.30
2022-09-10T01:21:33.788Z,14.30
2022-09-10T01:24:52.875Z,14.40
2022-09-10T01:27:45.540Z,14.30
2022-09-10T01:30:19.442Z,14.40
2022-09-10T01:33:12.699Z,14.60
2022-09-10T01:35:51.338Z,14.50
2022-09-10T01:38:32.021Z,14.40
2022-09-10T01:41:01.751Z,14.30
2022-09-10T01:43:33.930Z,14.30
2022-09-10T01:46:28.168Z,14.30
2022-09-10T01:49:22.272Z,14.30
2022-09-10T01:52:12.564Z,14.20
2022-09-10T01:54:59.898Z,14.10
2022-09-10T01:57:43.446Z,14.10
2022-09-10T02:00:18.252Z,14.10
2022-09-10T02:02:54.937Z,14.00
2022-09-10T02:05:26.557Z,14.20
2022-09-10T02:08:02.579Z,14.20
2022-09-10T02:10:32.140Z,14.40
2022-09-10T02:13:04.397Z,14.60
2022-09-10T02:15:39.510Z,14.50
2022-09-10T02:18:08.454Z,14.40
2022-09-10T02:20:39.085Z,14.50
2022-09-10T02:23:12.498Z,14.60
2022-09-10T02:25:42.152Z,14.60
2022-09-10T02:28:12.260Z,14.60
2022-09-10T02:30:45.656Z,14.60
2022-09-10T02:33:16.401Z,14.50
2022-09-10T02:35:47.683Z,14.40
2022-09-10T02:38:17.326Z,14.50
2022-09-10T02:40:49.261Z,14.80
2022-09-10T02:43:19.322Z,14.80
2022-09-10T02:45:49.977Z,14.70
2022-09-10T02:48:19.425Z,14.60
2022-09-10T02:50:48.593Z,14.50
2022-09-10T02:53:17.207Z,14.60
2022-09-10T02:55:46.765Z,14.50
2022-09-10T02:58:16.924Z,14.50
2022-09-10T03:00:48.195Z,14.50
2022-09-10T03:05:18.344Z,14.80
2022-09-10T03:07:47.589Z,15.00
2022-09-10T03:10:16.949Z,15.00
2022-09-10T03:12:45.835Z,15.00
2022-09-10T03:15:15.855Z,15.00
2022-09-10T03:17:44.545Z,14.90
2022-09-10T03:20:18.512Z,15.00
2022-09-10T03:22:47.937Z,15.00
2022-09-10T03:25:17.344Z,15.00
2022-09-10T03:27:46.368Z,15.10
2022-09-10T03:30:18.771Z,15.30
2022-09-10T03:32:48.553Z,15.40
2022-09-10T03:35:19.270Z,15.40
2022-09-10T03:37:48.409Z,15.40
2022-09-10T03:40:17.996Z,15.40
2022-09-10T03:42:48.626Z,15.50
2022-09-10T03:45:21.671Z,15.50
2022-09-10T03:47:52.320Z,15.50
2022-09-10T03:50:24.358Z,15.50
2022-09-10T03:55:47.312Z,15.60
2022-09-10T03:58:18.599Z,15.50
2022-09-10T04:00:47.456Z,15.50
2022-09-10T04:03:15.993Z,15.60
2022-09-10T04:05:46.044Z,15.50
2022-09-10T04:08:16.355Z,15.60
2022-09-10T04:10:45.520Z,15.60
2022-09-10T04:13:15.659Z,15.60
2022-09-10T04:15:47.057Z,15.70
2022-09-10T04:18:16.587Z,15.60
2022-09-10T04:20:49.585Z,15.60
2022-09-10T04:23:18.755Z,15.50
2022-09-10T04:25:50.946Z,15.50
2022-09-10T04:28:24.415Z,15.40
2022-09-10T04:30:53.144Z,15.30
2022-09-10T04:33:22.144Z,15.30
2022-09-10T04:35:55.141Z,15.30
2022-09-10T04:38:26.737Z,15.30
2022-09-10T04:40:55.327Z,15.20
2022-09-10T04:43:27.580Z,15.10
2022-09-10T04:45:57.438Z,15.00
2022-09-10T04:48:26.908Z,15.00
2022-09-10T04:51:15.377Z,15.00
2022-09-10T04:53:45.274Z,15.20
2022-09-10T04:56:14.830Z,15.30
2022-09-10T04:58:45.289Z,15.30
2022-09-10T05:01:14.741Z,15.20
2022-09-10T05:05:18.399Z,15.20
2022-09-10T05:07:47.075Z,15.30
2022-09-10T05:10:16.642Z,15.30
2022-09-10T05:12:45.535Z,15.50
2022-09-10T05:15:14.219Z,15.50
2022-09-10T05:17:43.828Z,15.60
2022-09-10T05:20:13.312Z,15.70
2022-09-10T05:22:46.816Z,15.80
2022-09-10T05:25:16.053Z,15.90
2022-09-10T05:27:44.731Z,15.80
2022-09-10T05:30:13.926Z,15.90
2022-09-10T05:32:42.808Z,16.00
2022-09-10T05:35:12.965Z,16.10
2022-09-10T05:37:41.676Z,16.20
2022-09-10T05:40:16.457Z,16.30
2022-09-10T05:42:45.239Z,16.30
2022-09-10T05:45:14.265Z,16.40
2022-09-10T05:47:43.991Z,16.50
2022-09-10T05:50:12.481Z,16.50
2022-09-10T05:52:41.116Z,16.40
2022-09-10T05:55:11.514Z,16.50
2022-09-10T05:57:41.973Z,16.70
2022-09-10T06:00:11.938Z,16.70
2022-09-10T06:02:42.302Z,16.80
2022-09-10T06:05:11.230Z,16.90
2022-09-10T06:07:40.083Z,17.00
2022-09-10T06:10:09.498Z,17.10
2022-09-10T06:12:40.466Z,17.20
2022-09-10T06:15:12.792Z,17.20
2022-09-10T06:17:41.281Z,17.30
2022-09-10T06:20:14.781Z,17.60
2022-09-10T06:22:43.503Z,17.90
2022-09-10T06:25:12.122Z,18.10
2022-09-10T06:27:42.073Z,18.40
2022-09-10T06:30:11.426Z,18.70
2022-09-10T06:32:40.572Z,19.20
2022-09-10T06:35:10.891Z,19.40
2022-09-10T06:37:39.981Z,19.40
2022-09-10T06:40:09.796Z,19.40
2022-09-10T06:42:39.202Z,19.60
2022-09-10T06:45:10.430Z,19.70
2022-09-10T06:48:25.388Z,20.10
2022-09-10T06:50:27.669Z,20.60
2022-09-10T06:52:57.408Z,21.40
2022-09-10T06:55:25.696Z,22.60
2022-09-10T06:57:54.312Z,23.60
2022-09-10T07:00:26.676Z,24.00
2022-09-10T07:05:18.076Z,23.80
2022-09-10T07:07:46.999Z,24.00
2022-09-10T07:10:15.619Z,24.20
2022-09-10T07:12:57.852Z,24.60
2022-09-10T07:15:39.115Z,25.00
2022-09-10T07:18:19.101Z,25.20
2022-09-10T07:20:51.719Z,26.00
2022-09-10T07:23:22.264Z,26.50
2022-09-10T07:25:53.305Z,26.20
2022-09-10T07:28:22.171Z,26.40
2022-09-10T07:30:51.512Z,27.30
2022-09-10T07:33:20.237Z,27.60
2022-09-10T07:35:53.625Z,27.30
2022-09-10T07:38:22.228Z,26.60
2022-09-10T07:40:52.538Z,26.00
2022-09-10T07:43:25.185Z,26.20
2022-09-10T07:45:54.250Z,26.20
2022-09-10T07:48:24.289Z,26.50
2022-09-10T07:50:54.466Z,26.60
2022-09-10T07:53:24.007Z,26.20
2022-09-10T07:56:03.518Z,26.10
2022-09-10T07:58:34.182Z,26.40
2022-09-10T08:01:03.696Z,27.00
2022-09-10T08:03:33.037Z,28.20
2022-09-10T08:06:06.243Z,28.60
2022-09-10T08:08:37.517Z,29.80
2022-09-10T08:11:11.757Z,30.80
2022-09-10T08:13:41.639Z,31.40
2022-09-10T08:16:12.714Z,31.60
2022-09-10T08:18:41.281Z,31.60
2022-09-10T08:21:12.432Z,31.60
2022-09-10T08:23:41.853Z,31.30
2022-09-10T08:26:11.245Z,30.80
2022-09-10T08:28:40.438Z,30.70
2022-09-10T08:31:11.858Z,30.80
2022-09-10T08:33:41.789Z,30.60
2022-09-10T08:36:14.817Z,30.70
2022-09-10T08:38:44.192Z,30.60
2022-09-10T08:41:24.319Z,31.00
2022-09-10T08:43:57.449Z,31.00
2022-09-10T08:46:31.991Z,30.70
2022-09-10T08:49:12.583Z,30.60
2022-09-10T08:51:45.692Z,31.20
2022-09-10T08:54:18.739Z,31.50
2022-09-10T08:56:50.497Z,31.40
2022-09-10T08:59:26.895Z,32.10
2022-09-10T09:05:22.230Z,31.90
2022-09-10T09:07:52.535Z,32.10
2022-09-10T09:10:31.560Z,31.80
2022-09-10T09:13:23.352Z,31.60
2022-09-10T09:15:59.061Z,31.80
2022-09-10T09:18:38.727Z,31.40
2022-09-10T09:21:14.599Z,31.20
2022-09-10T09:24:13.464Z,30.90
2022-09-10T09:26:46.832Z,31.10
2022-09-10T09:29:20.507Z,31.30
2022-09-10T09:31:53.124Z,30.80
2022-09-10T09:34:29.366Z,30.00
2022-09-10T09:37:04.261Z,29.00
2022-09-10T09:39:43.795Z,28.40
2022-09-10T09:42:21.003Z,28.40
2022-09-10T09:44:57.258Z,27.70
2022-09-10T09:47:29.510Z,27.30
2022-09-10T09:49:57.948Z,27.60
2022-09-10T09:52:33.455Z,27.40
2022-09-10T09:55:15.575Z,27.50
2022-09-10T09:57:45.140Z,27.50
2022-09-10T10:00:37.914Z,28.10
2022-09-10T10:03:14.397Z,28.60
2022-09-10T10:05:50.002Z,28.50
2022-09-10T10:08:31.296Z,28.50
2022-09-10T10:11:00.223Z,28.30
2022-09-10T10:13:39.137Z,28.30
2022-09-10T10:16:19.570Z,28.50
2022-09-10T10:18:52.394Z,29.00
2022-09-10T10:21:22.596Z,29.50
2022-09-10T10:23:52.485Z,29.90
2022-09-10T10:26:34.168Z,30.40
2022-09-10T10:29:07.008Z,30.70
2022-09-10T10:31:43.874Z,30.60
2022-09-10T10:34:39.016Z,30.20
2022-09-10T10:37:14.873Z,29.90
2022-09-10T10:40:03.432Z,29.50
2022-09-10T10:42:39.657Z,29.10
2022-09-10T10:45:40.512Z,28.70
2022-09-10T10:48:13.936Z,28.70
2022-09-10T10:50:55.104Z,28.30
2022-09-10T10:53:39.132Z,28.10
2022-09-10T10:56:16.176Z,27.90
2022-09-10T10:59:01.270Z,27.60
2022-09-10T11:01:34.230Z,27.50
2022-09-10T11:05:26.958Z,27.60
2022-09-10T11:08:00.623Z,28.10
2022-09-10T11:10:34.617Z,27.90
2022-09-10T11:13:10.413Z,27.70
2022-09-10T11:15:49.001Z,27.80
2022-09-10T11:18:27.550Z,28.20
2022-09-10T11:21:03.960Z,28.10
2022-09-10T11:23:40.690Z,28.10
2022-09-10T11:26:14.603Z,28.00
2022-09-10T11:28:52.576Z,27.60
2022-09-10T11:31:34.010Z,27.90
2022-09-10T11:34:07.027Z,27.90
2022-09-10T11:36:54.317Z,27.90
2022-09-10T11:39:34.066Z,27.80
2022-09-10T11:42:10.414Z,27.50
2022-09-10T11:44:50.296Z,27.00
2022-09-10T11:47:24.225Z,26.90
2022-09-10T11:50:01.571Z,26.30
2022-09-10T11:52:34.414Z,25.60
2022-09-10T11:55:04.941Z,25.40
2022-09-10T11:57:41.386Z,25.60
2022-09-10T12:00:17.661Z,26.00
2022-09-10T12:03:23.897Z,26.20
2022-09-10T12:06:09.333Z,26.70
2022-09-10T12:08:55.568Z,27.00
2022-09-10T12:11:30.063Z,27.40
2022-09-10T12:14:01.356Z,27.30
2022-09-10T12:16:41.554Z,27.10
2022-09-10T12:19:22.545Z,26.70
2022-09-10T12:21:53.571Z,27.00
2022-09-10T12:24:32.994Z,27.30
2022-09-10T12:27:02.714Z,27.50
2022-09-10T12:29:37.592Z,26.90
2022-09-10T12:32:38.214Z,26.20
2022-09-10T12:35:44.921Z,25.80
2022-09-10T12:38:59.221Z,25.10
2022-09-10T12:41:59.417Z,24.40
2022-09-10T12:44:43.959Z,23.90
2022-09-10T12:47:50.589Z,23.50
2022-09-10T12:50:46.802Z,23.10
2022-09-10T12:54:07.339Z,22.80
2022-09-10T12:57:08.372Z,22.70
2022-09-10T13:00:12.247Z,22.40
2022-09-10T13:05:26.410Z,21.40
2022-09-10T13:08:12.193Z,21.10
2022-09-10T13:10:42.383Z,20.90
2022-09-10T13:13:35.854Z,20.70
2022-09-10T13:16:07.324Z,20.30
2022-09-10T13:18:43.029Z,19.90
2022-09-10T13:21:52.933Z,19.80
2022-09-10T13:25:00.661Z,19.80
2022-09-10T13:27:41.858Z,19.80
2022-09-10T13:30:18.170Z,19.80
2022-09-10T13:32:52.830Z,19.90
2022-09-10T13:35:47.709Z,19.90
2022-09-10T13:38:52.701Z,19.90
2022-09-10T13:41:56.593Z,20.00
2022-09-10T13:44:45.861Z,20.00
2022-09-10T13:47:20.709Z,20.00
2022-09-10T13:49:55.596Z,20.20
2022-09-10T13:52:29.446Z,20.30
2022-09-10T13:54:59.676Z,20.40
2022-09-10T13:57:32.316Z,20.30
2022-09-10T14:00:08.248Z,20.50
2022-09-10T14:02:48.405Z,20.50
2022-09-10T14:05:27.174Z,20.60
2022-09-10T14:07:58.326Z,20.60
2022-09-10T14:10:27.221Z,20.60
2022-09-10T14:12:57.447Z,20.60
2022-09-10T14:15:39.330Z,20.60
2022-09-10T14:18:11.202Z,20.60
2022-09-10T14:20:42.823Z,20.50
2022-09-10T14:23:19.297Z,20.50
2022-09-10T14:25:48.912Z,20.60
2022-09-10T14:28:29.929Z,20.70
2022-09-10T14:31:25.051Z,21.10
2022-09-10T14:33:55.098Z,21.50
2022-09-10T14:36:35.268Z,22.10
2022-09-10T14:39:07.586Z,22.70
2022-09-10T14:41:37.855Z,23.10
2022-09-10T14:44:17.897Z,23.70
2022-09-10T14:46:53.279Z,24.40
2022-09-10T14:49:27.968Z,25.20
2022-09-10T14:51:58.520Z,25.70
2022-09-10T14:54:27.216Z,26.10
2022-09-10T14:56:58.239Z,25.70
2022-09-10T14:59:31.855Z,24.80
2022-09-10T15:05:19.432Z,23.60
2022-09-10T15:07:49.023Z,22.90
2022-09-10T15:10:18.489Z,22.40
2022-09-10T15:12:56.335Z,22.30
2022-09-10T15:15:27.227Z,22.20
2022-09-10T15:17:59.048Z,22.20
2022-09-10T15:20:29.122Z,22.60
2022-09-10T15:22:58.219Z,22.80
2022-09-10T15:25:37.977Z,22.90
2022-09-10T15:28:06.970Z,22.60
2022-09-10T15:30:36.214Z,22.70
2022-09-10T15:33:05.721Z,22.60
2022-09-10T15:35:36.961Z,22.80
2022-09-10T15:38:05.169Z,22.90
2022-09-10T15:40:34.020Z,22.50
2022-09-10T15:43:02.780Z,22.30
2022-09-10T15:45:33.535Z,22.10
2022-09-10T15:48:02.531Z,21.80
2022-09-10T15:50:32.410Z,21.90
2022-09-10T15:53:02.011Z,21.80
2022-09-10T15:55:31.772Z,22.00
2022-09-10T15:58:01.669Z,22.10
2022-09-10T16:00:34.291Z,22.40
2022-09-10T16:03:03.250Z,22.50
2022-09-10T16:05:35.440Z,22.30
2022-09-10T16:08:05.395Z,22.20
2022-09-10T16:10:39.813Z,22.30
2022-09-10T16:13:08.277Z,22.80
2022-09-10T16:15:38.911Z,23.10
2022-09-10T16:18:07.792Z,23.50
2022-09-10T16:20:36.690Z,23.60
2022-09-10T16:23:06.874Z,23.50
2022-09-10T16:25:35.152Z,22.50
2022-09-10T16:28:03.944Z,22.10
2022-09-10T16:30:32.386Z,22.50
2022-09-10T16:33:01.317Z,22.70
2022-09-10T16:35:29.885Z,22.40
2022-09-10T16:38:00.584Z,21.60
2022-09-10T16:40:31.430Z,21.00
2022-09-10T16:42:59.710Z,20.50
2022-09-10T16:45:31.433Z,19.80
2022-09-10T16:48:04.111Z,19.70
2022-09-10T16:50:34.490Z,19.60
2022-09-10T16:53:10.125Z,19.40
2022-09-10T16:55:42.613Z,19.10
2022-09-10T16:58:11.812Z,18.80
2022-09-10T17:00:43.239Z,18.60
2022-09-10T17:05:17.812Z,18.10
2022-09-10T17:07:46.919Z,17.90
2022-09-10T17:10:15.907Z,17.60
2022-09-10T17:12:44.752Z,17.60
2022-09-10T17:15:13.125Z,17.50
2022-09-10T17:17:43.310Z,17.50
2022-09-10T17:20:12.883Z,17.30
2022-09-10T17:22:42.800Z,17.40
2022-09-10T17:25:11.815Z,17.40
2022-09-10T17:27:40.980Z,17.40
2022-09-10T17:30:12.230Z,17.30
2022-09-10T17:32:41.302Z,17.30
2022-09-10T17:35:12.656Z,17.30
2022-09-10T17:37:42.571Z,17.20
2022-09-10T17:40:14.353Z,17.10
2022-09-10T17:42:49.280Z,17.10
2022-09-10T17:45:19.645Z,17.10
2022-09-10T17:47:49.002Z,17.00
2022-09-10T17:50:18.769Z,17.00
2022-09-10T17:52:49.486Z,17.00
2022-09-10T17:55:18.947Z,17.00
2022-09-10T17:57:47.383Z,17.00
2022-09-10T18:00:17.856Z,17.00
2022-09-10T18:02:46.154Z,17.00
2022-09-10T18:05:15.014Z,17.00
2022-09-10T18:07:47.670Z,17.00
2022-09-10T18:10:19.271Z,16.80
2022-09-10T18:12:48.825Z,16.80
2022-09-10T18:15:20.271Z,16.80
2022-09-10T18:17:49.147Z,16.70
2022-09-10T18:20:18.441Z,16.60
2022-09-10T18:22:47.872Z,16.50
2022-09-10T18:25:20.148Z,16.50
2022-09-10T18:27:51.772Z,16.50
2022-09-10T18:30:20.710Z,16.50
2022-09-10T18:32:52.162Z,16.40
2022-09-10T18:35:21.475Z,16.40
2022-09-10T18:37:53.541Z,16.40
2022-09-10T18:40:23.831Z,16.40
2022-09-10T18:42:53.370Z,16.40
2022-09-10T18:45:22.560Z,16.40
2022-09-10T18:47:53.583Z,16.40
2022-09-10T18:50:22.661Z,16.40
2022-09-10T18:52:53.551Z,16.40
2022-09-10T18:55:27.109Z,16.40
2022-09-10T18:57:56.826Z,16.40
2022-09-10T19:00:25.428Z,16.40
2022-09-10T19:05:21.007Z,16.30
2022-09-10T19:07:49.957Z,16.30
2022-09-10T19:10:18.596Z,16.20
2022-09-10T19:12:47.541Z,16.20
2022-09-10T19:15:16.329Z,16.20
2022-09-10T19:17:45.274Z,16.30
2022-09-10T19:20:14.687Z,16.30
2022-09-10T19:22:45.771Z,16.40
2022-09-10T19:25:14.870Z,16.40
2022-09-10T19:27:45.353Z,16.40
2022-09-10T19:30:14.623Z,16.30
2022-09-10T19:32:44.230Z,16.40
2022-09-10T19:35:15.785Z,16.40
2022-09-10T19:37:49.894Z,16.40
2022-09-10T19:40:18.551Z,16.40
2022-09-10T19:42:46.969Z,16.30
2022-09-10T19:45:16.735Z,16.30
2022-09-10T19:47:46.377Z,16.30
2022-09-10T19:50:15.462Z,16.20
2022-09-10T19:52:48.433Z,16.20
2022-09-10T19:55:19.598Z,16.10
2022-09-10T19:57:48.470Z,16.20
2022-09-10T20:00:43.128Z,16.20
2022-09-10T20:03:10.012Z,16.20
2022-09-10T20:05:42.945Z,16.20
2022-09-10T20:08:14.169Z,16.10
2022-09-10T20:10:52.091Z,16.20
2022-09-10T20:13:20.657Z,16.20
2022-09-10T20:15:49.602Z,16.20
2022-09-10T20:18:19.357Z,16.10
2022-09-10T20:20:48.558Z,16.10
2022-09-10T20:23:19.549Z,16.10
2022-09-10T20:25:48.566Z,16.10
2022-09-10T20:28:19.462Z,16.20
2022-09-10T20:30:48.616Z,16.20
2022-09-10T20:33:22.910Z,16.30
2022-09-10T20:35:51.554Z,16.30
2022-09-10T20:38:21.935Z,16.30
2022-09-10T20:40:50.833Z,16.30
2022-09-10T20:43:20.148Z,16.30
2022-09-10T20:45:49.661Z,16.40
2022-09-10T20:48:18.165Z,16.40
2022-09-10T20:50:53.513Z,16.40
2022-09-10T20:53:25.222Z,16.40
2022-09-10T20:55:54.350Z,16.50
2022-09-10T20:58:24.355Z,16.50
2022-09-10T21:00:53.093Z,16.60
2022-09-10T21:05:20.805Z,16.70
2022-09-10T21:07:51.174Z,16.80
2022-09-10T21:10:19.816Z,16.80
2022-09-10T21:12:50.074Z,16.90
2022-09-10T21:15:19.171Z,16.90
2022-09-10T21:17:49.297Z,17.00
2022-09-10T21:20:21.142Z,17.10
2022-09-10T21:22:50.709Z,17.10
2022-09-10T21:25:19.673Z,17.10
2022-09-10T21:27:48.361Z,17.00
2022-09-10T21:30:17.321Z,16.80
2022-09-10T21:32:46.454Z,16.50
2022-09-10T21:35:16.511Z,16.30
2022-09-10T21:37:47.001Z,16.10
2022-09-10T21:40:15.543Z,16.00
2022-09-10T21:42:51.465Z,16.00
2022-09-10T21:45:23.290Z,16.00
2022-09-10T21:47:54.395Z,16.00
2022-09-10T21:50:24.232Z,16.10
2022-09-10T21:52:54.683Z,16.20
2022-09-10T21:55:23.428Z,16.40
2022-09-10T21:57:55.059Z,16.50
2022-09-10T22:00:25.612Z,16.60
2022-09-10T22:02:55.415Z,16.60
2022-09-10T22:05:30.918Z,16.50
2022-09-10T22:08:03.081Z,16.60
2022-09-10T22:10:32.581Z,16.70
2022-09-10T22:13:01.062Z,16.80
2022-09-10T22:15:29.450Z,16.80
2022-09-10T22:17:58.003Z,16.80
2022-09-10T22:20:26.986Z,16.80
2022-09-10T22:22:55.310Z,16.70
2022-09-10T22:25:28.437Z,16.70
2022-09-10T22:27:58.374Z,16.60
2022-09-10T22:30:28.290Z,16.50
2022-09-10T22:32:57.534Z,16.30
2022-09-10T22:35:31.453Z,16.20
2022-09-10T22:38:00.395Z,16.10
2022-09-10T22:40:32.695Z,16.00
2022-09-10T22:43:04.958Z,15.90
2022-09-10T22:45:34.810Z,15.90
2022-09-10T22:48:06.497Z,15.80
2022-09-10T22:50:36.865Z,15.60
2022-09-10T22:53:08.403Z,15.40
2022-09-10T22:55:46.878Z,15.30
2022-09-10T22:58:19.057Z,15.30
2022-09-10T23:00:47.309Z,15.20
2022-09-10T23:05:18.586Z,15.10
2022-09-10T23:07:46.943Z,15.20
2022-09-10T23:10:18.447Z,15.20
2022-09-10T23:12:47.409Z,15.20
2022-09-10T23:15:19.474Z,15.10
2022-09-10T23:17:49.801Z,15.20
2022-09-10T23:20:20.554Z,15.20
2022-09-10T23:22:54.207Z,15.30
2022-09-10T23:25:23.661Z,15.30
2022-09-10T23:27:56.503Z,15.20
2022-09-10T23:30:25.005Z,15.20
2022-09-10T23:32:54.257Z,15.10
2022-09-10T23:35:24.679Z,15.00
2022-09-10T23:37:54.281Z,15.00
2022-09-10T23:40:28.906Z,15.00
2022-09-10T23:43:02.358Z,15.00
2022-09-10T23:45:31.023Z,15.00
2022-09-10T23:47:59.331Z,14.90
2022-09-10T23:50:29.935Z,14.90
2022-09-10T23:52:58.303Z,14.80
2022-09-10T23:55:26.927Z,14.80
2022-09-10T23:57:56.739Z,14.70
